sensor_id;sensor_type;location;lat;lon;timestamp;pressure;altitude;pressure_sealevel;temperature;humidity
84853;BME280;75109;47.440;19.310;2024-01-15T00:00:17;98811.69;;;-0.26;77.20
84853;BME280;75109;47.440;19.310;2024-01-15T00:00:49;98811.06;;;-0.23;77.07
84853;BME280;75109;47.440;19.310;2024-01-15T00:01:21;98814.94;;;-0.24;77.01
84853;BME280;75109;47.440;19.310;2024-01-15T00:01:54;98809.47;;;-0.24;77.02
84853;BME280;75109;47.440;19.310;2024-01-15T00:02:26;98822.03;;;-0.23;76.89
84853;BME280;75109;47.440;19.310;2024-01-15T00:02:58;98811.38;;;-0.24;76.96
84853;BME280;75109;47.440;19.310;2024-01-15T00:03:30;98805.06;;;-0.25;76.96
84853;BME280;75109;47.440;19.310;2024-01-15T00:04:02;98805.91;;;-0.24;76.79
84853;BME280;75109;47.440;19.310;2024-01-15T00:04:36;98802.53;;;-0.21;77.20
84853;BME280;75109;47.440;19.310;2024-01-15T00:05:09;98798.00;;;-0.26;77.00
84853;BME280;75109;47.440;19.310;2024-01-15T00:05:41;98803.78;;;-0.27;77.06
84853;BME280;75109;47.440;19.310;2024-01-15T00:06:13;98795.06;;;-0.29;77.27
84853;BME280;75109;47.440;19.310;2024-01-15T00:06:45;98801.13;;;-0.32;77.16
84853;BME280;75109;47.440;19.310;2024-01-15T00:07:17;98789.34;;;-0.33;77.39
84853;BME280;75109;47.440;19.310;2024-01-15T00:07:49;98783.06;;;-0.33;77.33
84853;BME280;75109;47.440;19.310;2024-01-15T00:08:21;98782.47;;;-0.30;77.23
84853;BME280;75109;47.440;19.310;2024-01-15T00:08:54;98787.53;;;-0.24;77.17
84853;BME280;75109;47.440;19.310;2024-01-15T00:09:26;98784.09;;;-0.29;77.11
84853;BME280;75109;47.440;19.310;2024-01-15T00:09:59;98781.63;;;-0.31;77.51
84853;BME280;75109;47.440;19.310;2024-01-15T00:10:31;98780.03;;;-0.32;77.67
84853;BME280;75109;47.440;19.310;2024-01-15T00:11:03;98774.03;;;-0.34;77.42
84853;BME280;75109;47.440;19.310;2024-01-15T00:11:36;98769.66;;;-0.35;77.37
84853;BME280;75109;47.440;19.310;2024-01-15T00:12:08;98765.81;;;-0.34;77.61
84853;BME280;75109;47.440;19.310;2024-01-15T00:12:40;98771.31;;;-0.34;77.67
84853;BME280;75109;47.440;19.310;2024-01-15T00:13:13;98768.25;;;-0.32;77.77
84853;BME280;75109;47.440;19.310;2024-01-15T00:13:45;98780.22;;;-0.28;77.73
84853;BME280;75109;47.440;19.310;2024-01-15T00:14:17;98773.41;;;-0.31;77.33
84853;BME280;75109;47.440;19.310;2024-01-15T00:14:52;98774.75;;;-0.28;77.46
84853;BME280;75109;47.440;19.310;2024-01-15T00:15:24;98779.72;;;-0.30;77.64
84853;BME280;75109;47.440;19.310;2024-01-15T00:15:56;98777.59;;;-0.33;77.62
84853;BME280;75109;47.440;19.310;2024-01-15T00:16:28;98772.31;;;-0.30;77.69
84853;BME280;75109;47.440;19.310;2024-01-15T00:17:00;98770.09;;;-0.28;77.46
84853;BME280;75109;47.440;19.310;2024-01-15T00:17:32;98766.03;;;-0.30;77.39
84853;BME280;75109;47.440;19.310;2024-01-15T00:18:05;98762.97;;;-0.29;77.55
84853;BME280;75109;47.440;19.310;2024-01-15T00:18:37;98767.66;;;-0.29;77.60
84853;BME280;75109;47.440;19.310;2024-01-15T00:19:09;98763.78;;;-0.28;77.35
84853;BME280;75109;47.440;19.310;2024-01-15T00:19:41;98770.09;;;-0.28;77.57
84853;BME280;75109;47.440;19.310;2024-01-15T00:20:14;98767.03;;;-0.26;77.25
84853;BME280;75109;47.440;19.310;2024-01-15T00:20:46;98758.19;;;-0.23;77.34
84853;BME280;75109;47.440;19.310;2024-01-15T00:21:18;98764.19;;;-0.21;77.37
84853;BME280;75109;47.440;19.310;2024-01-15T00:21:50;98760.94;;;-0.23;77.32
84853;BME280;75109;47.440;19.310;2024-01-15T00:22:25;98755.16;;;-0.22;77.39
84853;BME280;75109;47.440;19.310;2024-01-15T00:22:58;98760.94;;;-0.23;77.46
84853;BME280;75109;47.440;19.310;2024-01-15T00:23:30;98758.50;;;-0.25;77.79
84853;BME280;75109;47.440;19.310;2024-01-15T00:24:03;98755.75;;;-0.25;77.74
84853;BME280;75109;47.440;19.310;2024-01-15T00:24:35;98757.69;;;-0.25;77.36
84853;BME280;75109;47.440;19.310;2024-01-15T00:25:07;98749.97;;;-0.23;77.49
84853;BME280;75109;47.440;19.310;2024-01-15T00:25:41;98747.75;;;-0.21;77.66
84853;BME280;75109;47.440;19.310;2024-01-15T00:26:13;98755.97;;;-0.21;77.56
84853;BME280;75109;47.440;19.310;2024-01-15T00:26:45;98754.53;;;-0.19;77.56
84853;BME280;75109;47.440;19.310;2024-01-15T00:27:17;98743.59;;;-0.19;77.51
84853;BME280;75109;47.440;19.310;2024-01-15T00:27:49;98742.75;;;-0.19;77.52
84853;BME280;75109;47.440;19.310;2024-01-15T00:28:22;98749.69;;;-0.22;77.68
84853;BME280;75109;47.440;19.310;2024-01-15T00:28:54;98749.56;;;-0.17;77.53
84853;BME280;75109;47.440;19.310;2024-01-15T00:29:27;98743.28;;;-0.17;77.38
84853;BME280;75109;47.440;19.310;2024-01-15T00:29:59;98747.16;;;-0.18;77.60
84853;BME280;75109;47.440;19.310;2024-01-15T00:30:31;98747.97;;;-0.18;77.61
84853;BME280;75109;47.440;19.310;2024-01-15T00:31:03;98739.53;;;-0.21;77.42
84853;BME280;75109;47.440;19.310;2024-01-15T00:31:35;98745.81;;;-0.21;77.47
84853;BME280;75109;47.440;19.310;2024-01-15T00:32:08;98744.00;;;-0.25;77.39
84853;BME280;75109;47.440;19.310;2024-01-15T00:32:40;98750.41;;;-0.30;77.43
84853;BME280;75109;47.440;19.310;2024-01-15T00:33:12;98735.56;;;-0.29;77.97
84853;BME280;75109;47.440;19.310;2024-01-15T00:33:46;98743.19;;;-0.26;77.73
84853;BME280;75109;47.440;19.310;2024-01-15T00:34:18;98733.84;;;-0.25;77.81
84853;BME280;75109;47.440;19.310;2024-01-15T00:34:52;98732.25;;;-0.26;77.36
84853;BME280;75109;47.440;19.310;2024-01-15T00:35:24;98727.97;;;-0.32;77.70
84853;BME280;75109;47.440;19.310;2024-01-15T00:35:56;98734.47;;;-0.28;78.05
84853;BME280;75109;47.440;19.310;2024-01-15T00:36:28;98733.53;;;-0.23;77.65
84853;BME280;75109;47.440;19.310;2024-01-15T00:37:00;98722.56;;;-0.23;77.56
84853;BME280;75109;47.440;19.310;2024-01-15T00:37:32;98723.50;;;-0.28;77.77
84853;BME280;75109;47.440;19.310;2024-01-15T00:38:05;98712.06;;;-0.30;77.57
84853;BME280;75109;47.440;19.310;2024-01-15T00:38:37;98723.81;;;-0.29;77.76
84853;BME280;75109;47.440;19.310;2024-01-15T00:39:09;98722.69;;;-0.28;77.61
84853;BME280;75109;47.440;19.310;2024-01-15T00:39:42;98718.13;;;-0.33;77.62
84853;BME280;75109;47.440;19.310;2024-01-15T00:40:14;98722.81;;;-0.33;77.88
84853;BME280;75109;47.440;19.310;2024-01-15T00:40:47;98720.78;;;-0.28;77.92
84853;BME280;75109;47.440;19.310;2024-01-15T00:41:19;98713.06;;;-0.26;77.90
84853;BME280;75109;47.440;19.310;2024-01-15T00:41:52;98717.72;;;-0.26;77.55
84853;BME280;75109;47.440;19.310;2024-01-15T00:42:24;98725.13;;;-0.27;77.75
84853;BME280;75109;47.440;19.310;2024-01-15T00:42:56;98708.19;;;-0.29;77.98
84853;BME280;75109;47.440;19.310;2024-01-15T00:43:29;98715.59;;;-0.29;77.79
84853;BME280;75109;47.440;19.310;2024-01-15T00:44:01;98715.38;;;-0.33;77.88
84853;BME280;75109;47.440;19.310;2024-01-15T00:44:34;98716.19;;;-0.32;78.09
84853;BME280;75109;47.440;19.310;2024-01-15T00:45:07;98715.09;;;-0.31;77.78
84853;BME280;75109;47.440;19.310;2024-01-15T00:45:40;98715.09;;;-0.31;77.80
84853;BME280;75109;47.440;19.310;2024-01-15T00:46:13;98718.03;;;-0.28;77.95
84853;BME280;75109;47.440;19.310;2024-01-15T00:46:45;98712.25;;;-0.26;77.97
84853;BME280;75109;47.440;19.310;2024-01-15T00:47:18;98714.66;;;-0.25;77.85
84853;BME280;75109;47.440;19.310;2024-01-15T00:47:50;98711.09;;;-0.25;77.97
84853;BME280;75109;47.440;19.310;2024-01-15T00:48:22;98706.13;;;-0.23;78.11
84853;BME280;75109;47.440;19.310;2024-01-15T00:48:54;98709.50;;;-0.26;77.81
84853;BME280;75109;47.440;19.310;2024-01-15T00:49:27;98712.44;;;-0.23;78.12
84853;BME280;75109;47.440;19.310;2024-01-15T00:49:59;98710.72;;;-0.19;77.77
84853;BME280;75109;47.440;19.310;2024-01-15T00:50:31;98715.09;;;-0.18;77.49
84853;BME280;75109;47.440;19.310;2024-01-15T00:51:04;98710.19;;;-0.21;77.46
84853;BME280;75109;47.440;19.310;2024-01-15T00:51:36;98710.72;;;-0.19;77.54
84853;BME280;75109;47.440;19.310;2024-01-15T00:52:08;98706.88;;;-0.18;77.82
84853;BME280;75109;47.440;19.310;2024-01-15T00:52:40;98706.63;;;-0.21;77.50
84853;BME280;75109;47.440;19.310;2024-01-15T00:53:12;98709.59;;;-0.18;77.75
84853;BME280;75109;47.440;19.310;2024-01-15T00:53:44;98711.53;;;-0.18;78.01
84853;BME280;75109;47.440;19.310;2024-01-15T00:54:16;98717.00;;;-0.18;77.75
84853;BME280;75109;47.440;19.310;2024-01-15T00:54:49;98723.59;;;-0.19;77.75
84853;BME280;75109;47.440;19.310;2024-01-15T00:55:21;98720.34;;;-0.21;78.05
84853;BME280;75109;47.440;19.310;2024-01-15T00:55:53;98722.50;;;-0.18;77.84
84853;BME280;75109;47.440;19.310;2024-01-15T00:56:25;98714.78;;;-0.16;77.82
84853;BME280;75109;47.440;19.310;2024-01-15T00:56:57;98719.13;;;-0.15;77.83
84853;BME280;75109;47.440;19.310;2024-01-15T00:57:29;98713.94;;;-0.17;77.53
84853;BME280;75109;47.440;19.310;2024-01-15T00:58:01;98720.94;;;-0.11;77.66
84853;BME280;75109;47.440;19.310;2024-01-15T00:58:36;98712.22;;;-0.13;77.57
84853;BME280;75109;47.440;19.310;2024-01-15T00:59:08;98719.31;;;-0.12;77.73
84853;BME280;75109;47.440;19.310;2024-01-15T00:59:42;98719.31;;;-0.12;77.78
84853;BME280;75109;47.440;19.310;2024-01-15T01:00:14;98717.06;;;-0.10;77.55
84853;BME280;75109;47.440;19.310;2024-01-15T01:00:47;98719.53;;;-0.08;77.47
84853;BME280;75109;47.440;19.310;2024-01-15T01:01:19;98720.31;;;-0.08;77.79
84853;BME280;75109;47.440;19.310;2024-01-15T01:01:51;98708.84;;;-0.10;77.62
84853;BME280;75109;47.440;19.310;2024-01-15T01:02:23;98715.34;;;-0.06;77.62
84853;BME280;75109;47.440;19.310;2024-01-15T01:02:55;98716.16;;;-0.05;77.56
84853;BME280;75109;47.440;19.310;2024-01-15T01:03:27;98712.00;;;-0.03;77.49
84853;BME280;75109;47.440;19.310;2024-01-15T01:03:59;98711.56;;;0.04;77.54
84853;BME280;75109;47.440;19.310;2024-01-15T01:04:32;98705.81;;;0.06;77.30
84853;BME280;75109;47.440;19.310;2024-01-15T01:05:04;98711.88;;;0.03;77.34
84853;BME280;75109;47.440;19.310;2024-01-15T01:05:36;98717.38;;;0.03;77.17
84853;BME280;75109;47.440;19.310;2024-01-15T01:06:09;98709.25;;;-0.03;77.48
84853;BME280;75109;47.440;19.310;2024-01-15T01:06:41;98705.09;;;0.00;77.47
84853;BME280;75109;47.440;19.310;2024-01-15T01:07:13;98695.75;;;0.01;77.49
84853;BME280;75109;47.440;19.310;2024-01-15T01:07:45;98701.88;;;-0.02;77.16
84853;BME280;75109;47.440;19.310;2024-01-15T01:08:17;98693.31;;;-0.01;77.23
84853;BME280;75109;47.440;19.310;2024-01-15T01:08:49;98701.34;;;-0.04;77.66
84853;BME280;75109;47.440;19.310;2024-01-15T01:09:21;98702.97;;;-0.03;77.78
84853;BME280;75109;47.440;19.310;2024-01-15T01:09:54;98708.25;;;-0.07;77.26
84853;BME280;75109;47.440;19.310;2024-01-15T01:10:27;98702.16;;;-0.04;77.55
84853;BME280;75109;47.440;19.310;2024-01-15T01:10:59;98703.16;;;0.00;77.13
84853;BME280;75109;47.440;19.310;2024-01-15T01:11:31;98691.88;;;0.02;77.42
84853;BME280;75109;47.440;19.310;2024-01-15T01:12:03;98698.00;;;-0.01;77.41
84853;BME280;75109;47.440;19.310;2024-01-15T01:12:36;98687.84;;;-0.01;77.69
84853;BME280;75109;47.440;19.310;2024-01-15T01:13:08;98696.06;;;-0.01;77.30
84853;BME280;75109;47.440;19.310;2024-01-15T01:13:42;98684.28;;;-0.01;77.59
84853;BME280;75109;47.440;19.310;2024-01-15T01:14:14;98685.09;;;-0.01;77.49
84853;BME280;75109;47.440;19.310;2024-01-15T01:14:46;98678.50;;;0.00;77.30
84853;BME280;75109;47.440;19.310;2024-01-15T01:15:18;98681.72;;;0.03;77.10
84853;BME280;75109;47.440;19.310;2024-01-15T01:15:50;98687.22;;;0.03;77.44
84853;BME280;75109;47.440;19.310;2024-01-15T01:16:22;98678.50;;;0.00;77.27
84853;BME280;75109;47.440;19.310;2024-01-15T01:16:54;98682.69;;;-0.02;77.47
84853;BME280;75109;47.440;19.310;2024-01-15T01:17:27;98676.38;;;-0.03;77.35
84853;BME280;75109;47.440;19.310;2024-01-15T01:17:59;98680.72;;;-0.02;77.73
84853;BME280;75109;47.440;19.310;2024-01-15T01:18:31;98679.94;;;-0.02;77.58
84853;BME280;75109;47.440;19.310;2024-01-15T01:19:04;98673.81;;;0.01;77.45
84853;BME280;75109;47.440;19.310;2024-01-15T01:19:36;98674.84;;;0.05;77.66
84853;BME280;75109;47.440;19.310;2024-01-15T01:20:08;98672.09;;;0.05;77.17
84853;BME280;75109;47.440;19.310;2024-01-15T01:20:42;98679.19;;;0.06;77.25
84853;BME280;75109;47.440;19.310;2024-01-15T01:21:14;98668.53;;;0.05;77.47
84853;BME280;75109;47.440;19.310;2024-01-15T01:21:46;98670.16;;;0.06;77.45
84853;BME280;75109;47.440;19.310;2024-01-15T01:22:18;98671.78;;;0.07;77.50
84853;BME280;75109;47.440;19.310;2024-01-15T01:22:51;98672.09;;;0.05;77.40
84853;BME280;75109;47.440;19.310;2024-01-15T01:23:23;98675.66;;;0.06;77.27
84853;BME280;75109;47.440;19.310;2024-01-15T01:23:55;98678.38;;;0.06;77.26
84853;BME280;75109;47.440;19.310;2024-01-15T01:24:27;98684.66;;;0.06;77.36
84853;BME280;75109;47.440;19.310;2024-01-15T01:24:59;98666.91;;;0.04;77.37
84853;BME280;75109;47.440;19.310;2024-01-15T01:25:32;98668.22;;;0.06;77.43
84853;BME280;75109;47.440;19.310;2024-01-15T01:26:04;98678.25;;;0.11;77.02
84853;BME280;75109;47.440;19.310;2024-01-15T01:26:36;98670.03;;;0.11;77.10
84853;BME280;75109;47.440;19.310;2024-01-15T01:27:08;98674.50;;;0.07;77.37
84853;BME280;75109;47.440;19.310;2024-01-15T01:27:40;98666.28;;;0.07;77.38
84853;BME280;75109;47.440;19.310;2024-01-15T01:28:12;98667.94;;;0.08;77.40
84853;BME280;75109;47.440;19.310;2024-01-15T01:28:45;98662.44;;;0.08;77.25
84853;BME280;75109;47.440;19.310;2024-01-15T01:29:18;98662.72;;;0.06;77.26
84853;BME280;75109;47.440;19.310;2024-01-15T01:29:50;98655.97;;;0.04;77.21
84853;BME280;75109;47.440;19.310;2024-01-15T01:30:22;98656.75;;;0.04;77.29
84853;BME280;75109;47.440;19.310;2024-01-15T01:30:54;98656.47;;;0.06;77.17
84853;BME280;75109;47.440;19.310;2024-01-15T01:31:26;98654.22;;;0.08;77.00
84853;BME280;75109;47.440;19.310;2024-01-15T01:31:58;98651.78;;;0.06;77.26
84853;BME280;75109;47.440;19.310;2024-01-15T01:32:30;98649.84;;;0.07;77.03
84853;BME280;75109;47.440;19.310;2024-01-15T01:33:03;98649.34;;;0.05;77.33
84853;BME280;75109;47.440;19.310;2024-01-15T01:33:35;98650.47;;;0.04;77.10
84853;BME280;75109;47.440;19.310;2024-01-15T01:34:07;98655.97;;;0.04;76.99
84853;BME280;75109;47.440;19.310;2024-01-15T01:34:40;98646.41;;;0.01;77.09
84853;BME280;75109;47.440;19.310;2024-01-15T01:35:16;98650.28;;;0.00;77.02
84853;BME280;75109;47.440;19.310;2024-01-15T01:35:48;98653.03;;;0.00;77.26
84853;BME280;75109;47.440;19.310;2024-01-15T01:36:20;98649.78;;;-0.02;77.24
84853;BME280;75109;47.440;19.310;2024-01-15T01:36:52;98649.47;;;-0.01;77.44
84853;BME280;75109;47.440;19.310;2024-01-15T01:37:24;98655.78;;;0.00;77.01
84853;BME280;75109;47.440;19.310;2024-01-15T01:37:56;98653.31;;;-0.02;77.56
84853;BME280;75109;47.440;19.310;2024-01-15T01:38:28;98661.25;;;0.00;77.33
84853;BME280;75109;47.440;19.310;2024-01-15T01:39:00;98658.81;;;-0.02;77.62
84853;BME280;75109;47.440;19.310;2024-01-15T01:39:32;98655.28;;;-0.02;77.37
84853;BME280;75109;47.440;19.310;2024-01-15T01:40:06;98654.13;;;-0.01;77.27
84853;BME280;75109;47.440;19.310;2024-01-15T01:40:38;98651.91;;;0.01;77.38
84853;BME280;75109;47.440;19.310;2024-01-15T01:41:10;98658.69;;;0.04;77.40
84853;BME280;75109;47.440;19.310;2024-01-15T01:41:42;98656.47;;;0.06;77.48
84853;BME280;75109;47.440;19.310;2024-01-15T01:42:15;98654.22;;;0.08;77.03
84853;BME280;75109;47.440;19.310;2024-01-15T01:42:47;98649.03;;;0.06;77.14
84853;BME280;75109;47.440;19.310;2024-01-15T01:43:19;98646.78;;;0.08;77.17
84853;BME280;75109;47.440;19.310;2024-01-15T01:43:53;98655.00;;;0.08;77.05
84853;BME280;75109;47.440;19.310;2024-01-15T01:44:25;98649.84;;;0.07;77.23
84853;BME280;75109;47.440;19.310;2024-01-15T01:44:57;98657.56;;;0.05;77.08
84853;BME280;75109;47.440;19.310;2024-01-15T01:45:29;98649.84;;;0.07;77.34
84853;BME280;75109;47.440;19.310;2024-01-15T01:46:01;98661.81;;;0.11;77.08
84853;BME280;75109;47.440;19.310;2024-01-15T01:46:36;98660.38;;;0.13;77.08
84853;BME280;75109;47.440;19.310;2024-01-15T01:47:13;98664.88;;;0.09;76.86
84853;BME280;75109;47.440;19.310;2024-01-15T01:47:46;98654.72;;;0.10;77.08
84853;BME280;75109;47.440;19.310;2024-01-15T01:48:18;98655.22;;;0.12;76.92
84853;BME280;75109;47.440;19.310;2024-01-15T01:48:51;98659.25;;;0.14;77.33
84853;BME280;75109;47.440;19.310;2024-01-15T01:49:24;98658.94;;;0.16;77.04
84853;BME280;75109;47.440;19.310;2024-01-15T01:49:57;98655.59;;;0.19;76.92
84853;BME280;75109;47.440;19.310;2024-01-15T01:50:31;98654.97;;;0.22;76.52
84853;BME280;75109;47.440;19.310;2024-01-15T01:51:04;98657.09;;;0.25;76.62
84853;BME280;75109;47.440;19.310;2024-01-15T01:51:38;98655.28;;;0.20;76.49
84853;BME280;75109;47.440;19.310;2024-01-15T01:52:12;98656.41;;;0.19;76.77
84853;BME280;75109;47.440;19.310;2024-01-15T01:52:45;98650.94;;;0.19;76.88
84853;BME280;75109;47.440;19.310;2024-01-15T01:53:17;98655.59;;;0.19;77.11
84853;BME280;75109;47.440;19.310;2024-01-15T01:53:50;98648.97;;;0.20;76.80
84853;BME280;75109;47.440;19.310;2024-01-15T01:54:23;98646.75;;;0.22;76.54
84853;BME280;75109;47.440;19.310;2024-01-15T01:54:57;98638.50;;;0.22;76.68
84853;BME280;75109;47.440;19.310;2024-01-15T01:55:31;98638.50;;;0.22;76.56
84853;BME280;75109;47.440;19.310;2024-01-15T01:56:06;98633.53;;;0.24;76.37
84853;BME280;75109;47.440;19.310;2024-01-15T01:56:39;98631.41;;;0.21;76.49
84853;BME280;75109;47.440;19.310;2024-01-15T01:57:12;98624.00;;;0.21;76.50
84853;BME280;75109;47.440;19.310;2024-01-15T01:57:44;98631.41;;;0.21;76.59
84853;BME280;75109;47.440;19.310;2024-01-15T01:58:17;98626.25;;;0.19;76.41
84853;BME280;75109;47.440;19.310;2024-01-15T01:58:49;98627.03;;;0.20;76.19
84853;BME280;75109;47.440;19.310;2024-01-15T01:59:25;98617.72;;;0.21;76.32
84853;BME280;75109;47.440;19.310;2024-01-15T01:59:59;98622.69;;;0.19;76.47
84853;BME280;75109;47.440;19.310;2024-01-15T02:00:33;98625.94;;;0.21;76.43
84853;BME280;75109;47.440;19.310;2024-01-15T02:01:07;98621.28;;;0.21;76.34
84853;BME280;75109;47.440;19.310;2024-01-15T02:01:39;98622.38;;;0.20;76.24
84853;BME280;75109;47.440;19.310;2024-01-15T02:02:12;98626.25;;;0.19;76.28
84853;BME280;75109;47.440;19.310;2024-01-15T02:02:45;98621.28;;;0.21;76.28
84853;BME280;75109;47.440;19.310;2024-01-15T02:03:17;98621.88;;;0.18;76.00
84853;BME280;75109;47.440;19.310;2024-01-15T02:03:49;98630.09;;;0.18;76.13
84853;BME280;75109;47.440;19.310;2024-01-15T02:04:24;98630.75;;;0.15;75.92
84853;BME280;75109;47.440;19.310;2024-01-15T02:04:56;98628.59;;;0.12;76.29
84853;BME280;75109;47.440;19.310;2024-01-15T02:05:29;98631.97;;;0.09;76.32
84853;BME280;75109;47.440;19.310;2024-01-15T02:06:02;98626.81;;;0.08;76.31
84853;BME280;75109;47.440;19.310;2024-01-15T02:06:35;98627.72;;;0.03;76.37
84853;BME280;75109;47.440;19.310;2024-01-15T02:07:08;98632.41;;;0.03;76.67
84853;BME280;75109;47.440;19.310;2024-01-15T02:07:41;98628.38;;;0.00;76.45
84853;BME280;75109;47.440;19.310;2024-01-15T02:08:14;98621.88;;;-0.04;76.97
84853;BME280;75109;47.440;19.310;2024-01-15T02:08:46;98624.41;;;-0.08;76.98
84853;BME280;75109;47.440;19.310;2024-01-15T02:09:18;98614.75;;;-0.05;76.73
84853;BME280;75109;47.440;19.310;2024-01-15T02:09:51;98613.94;;;-0.06;76.78
84853;BME280;75109;47.440;19.310;2024-01-15T02:10:23;98620.25;;;-0.05;77.00
84853;BME280;75109;47.440;19.310;2024-01-15T02:10:55;98617.81;;;-0.07;77.13
84853;BME280;75109;47.440;19.310;2024-01-15T02:11:27;98615.09;;;-0.07;76.91
84853;BME280;75109;47.440;19.310;2024-01-15T02:11:59;98611.34;;;-0.11;76.83
84853;BME280;75109;47.440;19.310;2024-01-15T02:12:32;98605.34;;;-0.13;76.94
84853;BME280;75109;47.440;19.310;2024-01-15T02:13:04;98615.50;;;-0.13;77.11
84853;BME280;75109;47.440;19.310;2024-01-15T02:13:36;98612.44;;;-0.12;76.95
84853;BME280;75109;47.440;19.310;2024-01-15T02:14:10;98614.91;;;-0.10;77.06
84853;BME280;75109;47.440;19.310;2024-01-15T02:14:44;98598.75;;;-0.12;77.15
84853;BME280;75109;47.440;19.310;2024-01-15T02:15:16;98600.50;;;-0.16;77.11
84853;BME280;75109;47.440;19.310;2024-01-15T02:15:48;98591.16;;;-0.15;76.97
84853;BME280;75109;47.440;19.310;2024-01-15T02:16:20;98590.97;;;-0.18;77.45
84853;BME280;75109;47.440;19.310;2024-01-15T02:16:52;98590.78;;;-0.22;77.18
84853;BME280;75109;47.440;19.310;2024-01-15T02:17:24;98590.56;;;-0.25;77.53
84853;BME280;75109;47.440;19.310;2024-01-15T02:17:57;98589.47;;;-0.24;77.67
84853;BME280;75109;47.440;19.310;2024-01-15T02:18:40;98584.81;;;-0.24;77.41
84853;BME280;75109;47.440;19.310;2024-01-15T02:19:15;98597.06;;;-0.21;77.55
84853;BME280;75109;47.440;19.310;2024-01-15T02:19:47;98594.81;;;-0.19;77.34
84853;BME280;75109;47.440;19.310;2024-01-15T02:20:20;98592.91;;;-0.19;77.38
84853;BME280;75109;47.440;19.310;2024-01-15T02:20:52;98588.06;;;-0.22;77.54
84853;BME280;75109;47.440;19.310;2024-01-15T02:21:24;98588.66;;;-0.25;77.56
84853;BME280;75109;47.440;19.310;2024-01-15T02:21:58;98589.47;;;-0.24;77.60
84853;BME280;75109;47.440;19.310;2024-01-15T02:22:30;98578.81;;;-0.26;77.64
84853;BME280;75109;47.440;19.310;2024-01-15T02:23:13;98587.03;;;-0.26;77.54
84853;BME280;75109;47.440;19.310;2024-01-15T02:23:46;98585.41;;;-0.27;77.27
84853;BME280;75109;47.440;19.310;2024-01-15T02:24:18;98584.81;;;-0.24;77.15
84853;BME280;75109;47.440;19.310;2024-01-15T02:24:50;98581.25;;;-0.24;77.49
84853;BME280;75109;47.440;19.310;2024-01-15T02:25:22;98580.75;;;-0.26;77.21
84853;BME280;75109;47.440;19.310;2024-01-15T02:25:54;98581.16;;;-0.33;77.40
84853;BME280;75109;47.440;19.310;2024-01-15T02:26:26;98575.81;;;-0.38;77.63
84853;BME280;75109;47.440;19.310;2024-01-15T02:26:59;98578.75;;;-0.34;77.54
84853;BME280;75109;47.440;19.310;2024-01-15T02:27:31;98577.91;;;-0.35;77.75
84853;BME280;75109;47.440;19.310;2024-01-15T02:28:04;98568.91;;;-0.35;77.64
84853;BME280;75109;47.440;19.310;2024-01-15T02:28:37;98576.81;;;-0.34;77.60
84853;BME280;75109;47.440;19.310;2024-01-15T02:29:10;98575.69;;;-0.33;77.72
84853;BME280;75109;47.440;19.310;2024-01-15T02:29:43;98574.06;;;-0.34;77.45
84853;BME280;75109;47.440;19.310;2024-01-15T02:30:15;98576.81;;;-0.34;77.77
84853;BME280;75109;47.440;19.310;2024-01-15T02:30:47;98580.66;;;-0.35;77.70
84853;BME280;75109;47.440;19.310;2024-01-15T02:31:20;98580.66;;;-0.35;77.55
84853;BME280;75109;47.440;19.310;2024-01-15T02:31:52;98585.84;;;-0.33;77.49
84853;BME280;75109;47.440;19.310;2024-01-15T02:32:24;98592.94;;;-0.32;77.38
84853;BME280;75109;47.440;19.310;2024-01-15T02:32:56;98592.44;;;-0.34;77.35
84853;BME280;75109;47.440;19.310;2024-01-15T02:33:28;98598.22;;;-0.36;77.74
84853;BME280;75109;47.440;19.310;2024-01-15T02:34:00;98601.16;;;-0.32;77.64
84853;BME280;75109;47.440;19.310;2024-01-15T02:34:33;98600.34;;;-0.33;77.66
84853;BME280;75109;47.440;19.310;2024-01-15T02:35:05;98606.81;;;-0.29;77.56
84853;BME280;75109;47.440;19.310;2024-01-15T02:35:37;98610.38;;;-0.28;77.45
84853;BME280;75109;47.440;19.310;2024-01-15T02:36:10;98600.06;;;-0.31;77.30
84853;BME280;75109;47.440;19.310;2024-01-15T02:36:42;98594.16;;;-0.38;77.80
84853;BME280;75109;47.440;19.310;2024-01-15T02:37:14;98588.19;;;-0.40;77.75
84853;BME280;75109;47.440;19.310;2024-01-15T02:37:46;98588.63;;;-0.47;77.75
84853;BME280;75109;47.440;19.310;2024-01-15T02:38:20;98580.91;;;-0.45;78.28
84853;BME280;75109;47.440;19.310;2024-01-15T02:38:52;98591.25;;;-0.42;77.90
84853;BME280;75109;47.440;19.310;2024-01-15T02:39:25;98587.09;;;-0.39;77.56
84853;BME280;75109;47.440;19.310;2024-01-15T02:39:57;98590.63;;;-0.39;77.59
84853;BME280;75109;47.440;19.310;2024-01-15T02:40:29;98578.69;;;-0.43;77.49
84853;BME280;75109;47.440;19.310;2024-01-15T02:41:01;98577.69;;;-0.47;77.67
84853;BME280;75109;47.440;19.310;2024-01-15T02:41:33;98581.19;;;-0.46;78.02
84853;BME280;75109;47.440;19.310;2024-01-15T02:42:05;98590.75;;;-0.44;77.80
84853;BME280;75109;47.440;19.310;2024-01-15T02:42:37;98591.56;;;-0.43;77.47
84853;BME280;75109;47.440;19.310;2024-01-15T02:43:10;98585.56;;;-0.45;77.57
84853;BME280;75109;47.440;19.310;2024-01-15T02:43:42;98584.66;;;-0.41;77.46
84853;BME280;75109;47.440;19.310;2024-01-15T02:44:14;98579.91;;;-0.49;77.82
84853;BME280;75109;47.440;19.310;2024-01-15T02:44:46;98575.53;;;-0.50;78.09
84853;BME280;75109;47.440;19.310;2024-01-15T02:45:21;98580.19;;;-0.50;78.00
84853;BME280;75109;47.440;19.310;2024-01-15T02:45:53;98577.16;;;-0.49;77.75
84853;BME280;75109;47.440;19.310;2024-01-15T02:46:25;98584.25;;;-0.48;77.90
84853;BME280;75109;47.440;19.310;2024-01-15T02:46:57;98578.19;;;-0.45;77.65
84853;BME280;75109;47.440;19.310;2024-01-15T02:47:29;98583.16;;;-0.47;77.58
84853;BME280;75109;47.440;19.310;2024-01-15T02:48:02;98576.53;;;-0.46;77.86
84853;BME280;75109;47.440;19.310;2024-01-15T02:48:34;98570.25;;;-0.46;77.56
84853;BME280;75109;47.440;19.310;2024-01-15T02:49:08;98569.88;;;-0.53;77.68
84853;BME280;75109;47.440;19.310;2024-01-15T02:49:41;98569.69;;;-0.57;77.92
84853;BME280;75109;47.440;19.310;2024-01-15T02:50:13;98572.22;;;-0.60;77.91
84853;BME280;75109;47.440;19.310;2024-01-15T02:50:45;98572.41;;;-0.57;77.86